createdAt,value
2022-12-01T00:01:07.449Z,95163.31
2022-12-01T00:03:34.154Z,95163.31
2022-12-01T00:06:05.763Z,95151.47
2022-12-01T00:08:33.303Z,95143.75
2022-12-01T00:11:11.506Z,95137.41
2022-12-01T00:13:38.125Z,95144.38
2022-12-01T00:16:14.933Z,95155.94
2022-12-01T00:18:42.229Z,95146.84
2022-12-01T00:21:16.328Z,95148.97
2022-12-01T00:23:47.580Z,95147.47
2022-12-01T00:26:18.392Z,95143.75
2022-12-01T00:28:49.423Z,95140.84
2022-12-01T00:31:16.047Z,95138.78
2022-12-01T00:33:42.607Z,95154.03
2022-12-01T00:36:09.668Z,95153.84
2022-12-01T00:38:36.414Z,95147.28
2022-12-01T00:41:03.472Z,95150.16
2022-12-01T00:43:30.030Z,95152.03
2022-12-01T00:45:56.677Z,95153.97
2022-12-01T00:48:23.308Z,95147.94
2022-12-01T00:50:53.480Z,95157.03
2022-12-01T00:53:20.208Z,95160.72
2022-12-01T00:55:46.719Z,95152.41
2022-12-01T00:58:13.235Z,95159.09
2022-12-01T01:00:39.757Z,95166.91
2022-12-01T01:03:07.306Z,95160.97
2022-12-01T01:05:42.257Z,95164.94
2022-12-01T01:08:10.635Z,95154.56
2022-12-01T01:10:45.980Z,95163.84
2022-12-01T01:13:13.910Z,95164.81
2022-12-01T01:15:41.100Z,95170.47
2022-12-01T01:18:07.743Z,95169.16
2022-12-01T01:20:34.257Z,95168.78
2022-12-01T01:23:00.796Z,95163.41
2022-12-01T01:25:27.319Z,95173.66
2022-12-01T01:27:53.937Z,95173.34
2022-12-01T01:30:21.082Z,95164.38
2022-12-01T01:32:47.744Z,95170.34
2022-12-01T01:35:14.243Z,95180.41
2022-12-01T01:37:40.747Z,95176.19
2022-12-01T01:40:07.847Z,95184.09
2022-12-01T01:42:34.345Z,95173.38
2022-12-01T01:45:00.846Z,95176.59
2022-12-01T01:47:33.366Z,95170.09
2022-12-01T01:50:03.659Z,95182.06
2022-12-01T01:52:30.181Z,95161.84
2022-12-01T01:54:56.778Z,95171.78
2022-12-01T01:57:28.003Z,95159.25
2022-12-01T01:59:59.095Z,95184.50
2022-12-01T02:02:25.784Z,95178.59
2022-12-01T02:04:56.866Z,95170.75
2022-12-01T02:07:23.853Z,95181.03
2022-12-01T02:09:50.602Z,95180.13
2022-12-01T02:12:38.488Z,95176.09
2022-12-01T02:15:23.467Z,95175.31
2022-12-01T02:18:03.429Z,95169.38
2022-12-01T02:20:43.729Z,95172.19
2022-12-01T02:23:20.342Z,95181.31
2022-12-01T02:26:14.293Z,95181.22
2022-12-01T02:28:57.741Z,95176.41
2022-12-01T02:31:44.137Z,95187.41
2022-12-01T02:34:24.341Z,95175.81
2022-12-01T02:36:58.708Z,95160.13
2022-12-01T02:39:29.491Z,95179.47
2022-12-01T02:42:04.478Z,95174.88
2022-12-01T02:44:37.669Z,95178.00
2022-12-01T02:47:10.460Z,95176.66
2022-12-01T02:49:41.462Z,95173.88
2022-12-01T02:52:08.773Z,95174.59
2022-12-01T02:54:35.629Z,95168.09
2022-12-01T02:57:02.142Z,95169.63
2022-12-01T02:59:28.673Z,95165.63
2022-12-01T03:02:06.424Z,95184.53
2022-12-01T03:04:42.025Z,95170.81
2022-12-01T03:07:42.578Z,95177.75
2022-12-01T03:10:09.085Z,95182.53
2022-12-01T03:12:37.462Z,95173.72
2022-12-01T03:15:18.610Z,95183.50
2022-12-01T03:18:01.982Z,95181.00
2022-12-01T03:20:39.587Z,95165.13
2022-12-01T03:23:09.680Z,95173.25
2022-12-01T03:25:38.190Z,95168.53
2022-12-01T03:28:21.958Z,95181.44
2022-12-01T03:30:51.000Z,95175.06
2022-12-01T03:33:24.780Z,95164.41
2022-12-01T03:36:00.783Z,95153.75
2022-12-01T03:38:28.464Z,95163.97
2022-12-01T03:41:08.174Z,95166.31
2022-12-01T03:43:38.887Z,95168.47
2022-12-01T03:46:46.117Z,95169.38
2022-12-01T03:49:14.129Z,95162.69
2022-12-01T03:51:48.198Z,95159.69
2022-12-01T03:54:53.055Z,95177.28
2022-12-01T03:57:37.868Z,95160.25
2022-12-01T04:00:05.887Z,95164.72
2022-12-01T04:02:32.599Z,95165.69
2022-12-01T04:04:59.219Z,95170.09
2022-12-01T04:07:25.777Z,95161.28
2022-12-01T04:09:52.331Z,95167.59
2022-12-01T04:12:18.958Z,95163.00
2022-12-01T04:14:58.000Z,95173.38
2022-12-01T04:17:25.743Z,95179.22
2022-12-01T04:19:52.703Z,95189.13
2022-12-01T04:22:19.880Z,95173.44
2022-12-01T04:24:46.405Z,95178.31
2022-12-01T04:27:13.254Z,95191.06
2022-12-01T04:29:39.779Z,95177.50
2022-12-01T04:32:06.446Z,95178.31
2022-12-01T04:34:33.266Z,95198.63
2022-12-01T04:36:59.750Z,95175.16
2022-12-01T04:39:26.274Z,95190.13
2022-12-01T04:41:53.091Z,95182.09
2022-12-01T04:44:19.691Z,95173.25
2022-12-01T04:46:46.359Z,95187.69
2022-12-01T04:49:12.955Z,95185.16
2022-12-01T04:51:39.626Z,95187.84
2022-12-01T04:54:06.129Z,95195.44
2022-12-01T04:56:32.849Z,95184.88
2022-12-01T04:58:59.435Z,95194.69
2022-12-01T05:01:26.052Z,95189.59
2022-12-01T05:03:52.715Z,95181.84
2022-12-01T05:06:21.795Z,95178.28
2022-12-01T05:08:48.795Z,95174.28
2022-12-01T05:11:15.922Z,95175.19
2022-12-01T05:13:44.439Z,95183.25
2022-12-01T05:16:16.648Z,95174.00
2022-12-01T05:18:43.855Z,95176.47
2022-12-01T05:21:11.120Z,95190.34
2022-12-01T05:23:38.213Z,95164.25
2022-12-01T05:26:09.048Z,95175.28
2022-12-01T05:28:36.143Z,95164.44
2022-12-01T05:31:03.216Z,95181.34
2022-12-01T05:33:30.422Z,95177.63
2022-12-01T05:35:57.006Z,95177.53
2022-12-01T05:38:23.662Z,95191.88
2022-12-01T05:40:51.414Z,95177.81
2022-12-01T05:43:18.367Z,95181.00
2022-12-01T05:45:44.950Z,95182.78
2022-12-01T05:48:11.497Z,95183.19
2022-12-01T05:50:39.102Z,95193.38
2022-12-01T05:53:06.642Z,95180.91
2022-12-01T05:55:34.563Z,95185.31
2022-12-01T05:58:01.625Z,95184.81
2022-12-01T06:00:28.696Z,95191.47
2022-12-01T06:02:55.485Z,95187.38
2022-12-01T06:05:21.994Z,95192.31
2022-12-01T06:07:48.689Z,95173.56
2022-12-01T06:10:15.777Z,95183.09
2022-12-01T06:12:42.306Z,95183.94
2022-12-01T06:15:10.655Z,95173.50
2022-12-01T06:17:40.453Z,95184.59
2022-12-01T06:20:08.373Z,95179.09
2022-12-01T06:22:34.871Z,95169.63
2022-12-01T06:25:01.487Z,95181.41
2022-12-01T06:27:28.103Z,95175.28
2022-12-01T06:29:54.696Z,95194.25
2022-12-01T06:32:21.229Z,95203.44
2022-12-01T06:34:47.747Z,95196.88
2022-12-01T06:37:14.260Z,95197.06
2022-12-01T06:39:41.082Z,95203.06
2022-12-01T06:42:07.573Z,95202.53
2022-12-01T06:44:34.346Z,95191.38
2022-12-01T06:47:00.861Z,95198.31
2022-12-01T06:49:27.342Z,95213.09
2022-12-01T06:51:53.848Z,95204.59
2022-12-01T06:54:20.447Z,95202.97
2022-12-01T06:56:46.958Z,95192.88
2022-12-01T06:59:16.066Z,95203.66
2022-12-01T07:01:43.284Z,95205.47
2022-12-01T07:04:09.810Z,95205.69
2022-12-01T07:06:36.449Z,95213.69
2022-12-01T07:09:02.945Z,95208.91
2022-12-01T07:11:29.459Z,95216.69
2022-12-01T07:13:56.017Z,95211.47
2022-12-01T07:16:22.723Z,95211.47
2022-12-01T07:18:49.264Z,95215.03
2022-12-01T07:21:15.903Z,95218.59
2022-12-01T07:23:43.346Z,95215.81
2022-12-01T07:26:15.373Z,95218.41
2022-12-01T07:28:43.557Z,95227.47
2022-12-01T07:31:16.452Z,95222.47
2022-12-01T07:33:49.664Z,95214.81
2022-12-01T07:36:16.204Z,95223.28
2022-12-01T07:38:42.794Z,95228.66
2022-12-01T07:41:11.301Z,95217.66
2022-12-01T07:43:38.364Z,95221.78
2022-12-01T07:46:07.848Z,95220.34
2022-12-01T07:48:35.443Z,95227.00
2022-12-01T07:51:02.240Z,95237.84
2022-12-01T07:53:28.799Z,95235.94
2022-12-01T07:55:55.485Z,95232.75
2022-12-01T07:58:22.059Z,95234.44
2022-12-01T08:00:48.572Z,95228.13
2022-12-01T08:03:15.147Z,95233.56
2022-12-01T08:05:41.651Z,95240.97
2022-12-01T08:08:08.307Z,95237.28
2022-12-01T08:10:35.147Z,95246.88
2022-12-01T08:13:01.625Z,95239.44
2022-12-01T08:15:28.405Z,95239.72
2022-12-01T08:17:55.051Z,95227.72
2022-12-01T08:20:24.068Z,95234.41
2022-12-01T08:22:50.813Z,95243.31
2022-12-01T08:25:17.344Z,95231.22
2022-12-01T08:27:44.037Z,95227.34
2022-12-01T08:30:10.941Z,95231.16
2022-12-01T08:32:37.494Z,95239.09
2022-12-01T08:35:04.250Z,95241.06
2022-12-01T08:37:30.826Z,95236.31
2022-12-01T08:39:57.306Z,95229.34
2022-12-01T08:42:24.082Z,95237.75
2022-12-01T08:44:53.851Z,95233.50
2022-12-01T08:47:22.036Z,95228.25
2022-12-01T08:49:48.787Z,95237.84
2022-12-01T08:52:15.391Z,95237.56
2022-12-01T08:54:41.931Z,95245.63
2022-12-01T08:57:08.458Z,95224.13
2022-12-01T08:59:35.050Z,95232.69
2022-12-01T09:02:06.806Z,95236.38
2022-12-01T09:04:33.834Z,95236.91
2022-12-01T09:07:00.325Z,95244.25
2022-12-01T09:09:28.783Z,95242.88
2022-12-01T09:11:55.899Z,95259.34
2022-12-01T09:14:23.144Z,95251.28
2022-12-01T09:16:50.548Z,95239.28
2022-12-01T09:19:24.035Z,95249.13
2022-12-01T09:21:51.762Z,95264.28
2022-12-01T09:24:18.398Z,95256.59
2022-12-01T09:26:44.929Z,95243.03
2022-12-01T09:29:13.683Z,95247.72
2022-12-01T09:31:40.888Z,95255.13
2022-12-01T09:34:12.213Z,95238.41
2022-12-01T09:36:39.004Z,95261.91
2022-12-01T09:39:07.240Z,95252.91
2022-12-01T09:41:49.121Z,95249.00
2022-12-01T09:44:23.135Z,95251.09
2022-12-01T09:46:54.796Z,95260.50
2022-12-01T09:49:30.364Z,95254.72
2022-12-01T09:51:59.800Z,95271.97
2022-12-01T09:54:28.721Z,95268.56
2022-12-01T09:56:55.617Z,95261.59
2022-12-01T09:59:24.929Z,95273.22
2022-12-01T10:01:55.325Z,95252.72
2022-12-01T10:04:27.750Z,95268.38
2022-12-01T10:07:18.287Z,95269.25
2022-12-01T10:09:48.598Z,95258.75
2022-12-01T10:12:18.176Z,95252.13
2022-12-01T10:14:48.643Z,95248.34
2022-12-01T10:17:27.852Z,95251.47
2022-12-01T10:20:23.549Z,95248.84
2022-12-01T10:23:12.737Z,95241.28
2022-12-01T10:25:56.311Z,95251.59
2022-12-01T10:28:34.775Z,95243.66
2022-12-01T10:31:14.287Z,95243.34
2022-12-01T10:33:51.365Z,95256.47
2022-12-01T10:36:17.934Z,95242.41
2022-12-01T10:38:44.626Z,95235.81
2022-12-01T10:41:14.578Z,95232.22
2022-12-01T10:43:44.723Z,95240.47
2022-12-01T10:46:40.444Z,95242.63
2022-12-01T10:49:09.731Z,95229.47
2022-12-01T10:51:57.054Z,95232.03
2022-12-01T10:54:32.765Z,95246.22
2022-12-01T10:56:59.732Z,95234.16
2022-12-01T10:59:33.326Z,95234.47
2022-12-01T11:02:01.368Z,95225.88
2022-12-01T11:04:43.734Z,95244.22
2022-12-01T11:07:16.350Z,95224.28
2022-12-01T11:09:45.405Z,95229.69
2022-12-01T11:12:16.923Z,95219.56
2022-12-01T11:14:50.895Z,95225.22
2022-12-01T11:17:40.688Z,95217.72
2022-12-01T11:20:32.209Z,95220.59
2022-12-01T11:23:20.413Z,95215.84
2022-12-01T11:26:15.517Z,95225.91
2022-12-01T11:28:54.930Z,95221.09
2022-12-01T11:31:24.360Z,95228.53
2022-12-01T11:33:55.262Z,95230.88
2022-12-01T11:36:30.701Z,95230.03
2022-12-01T11:39:01.627Z,95220.91
2022-12-01T11:41:32.940Z,95228.81
2022-12-01T11:44:02.173Z,95220.22
2022-12-01T11:46:36.345Z,95218.06
2022-12-01T11:49:03.811Z,95225.59
2022-12-01T11:51:32.636Z,95223.03
2022-12-01T11:54:11.485Z,95218.31
2022-12-01T11:56:38.197Z,95215.56
2022-12-01T11:59:17.546Z,95219.84
2022-12-01T12:01:47.038Z,95224.28
2022-12-01T12:04:29.650Z,95213.38
2022-12-01T12:07:21.121Z,95217.13
2022-12-01T12:10:11.014Z,95215.03
2022-12-01T12:12:50.084Z,95216.50
2022-12-01T12:16:04.891Z,95219.25
2022-12-01T12:18:59.090Z,95214.41
2022-12-01T12:21:38.537Z,95213.09
2022-12-01T12:24:21.165Z,95213.50
2022-12-01T12:26:56.550Z,95211.97
2022-12-01T12:29:38.709Z,95209.84
2022-12-01T12:32:14.379Z,95206.13
2022-12-01T12:34:49.046Z,95201.16
2022-12-01T12:37:24.990Z,95198.56
2022-12-01T12:40:26.946Z,95200.81
2022-12-01T12:43:34.853Z,95199.25
2022-12-01T12:46:04.519Z,95186.50
2022-12-01T12:49:18.786Z,95198.06
2022-12-01T12:51:54.608Z,95192.59
2022-12-01T12:54:32.505Z,95184.91
2022-12-01T12:57:03.323Z,95182.38
2022-12-01T12:59:47.038Z,95185.22
2022-12-01T13:02:32.171Z,95183.69
2022-12-01T13:05:02.947Z,95174.44
2022-12-01T13:07:34.208Z,95190.94
2022-12-01T13:10:09.240Z,95171.91
2022-12-01T13:12:40.418Z,95178.13
2022-12-01T13:15:15.615Z,95178.41
2022-12-01T13:17:45.657Z,95185.63
2022-12-01T13:20:17.943Z,95184.56
2022-12-01T13:22:45.222Z,95178.56
2022-12-01T13:25:25.601Z,95176.75
2022-12-01T13:27:51.995Z,95173.28
2022-12-01T13:30:24.233Z,95172.28
2022-12-01T13:32:58.552Z,95176.38
2022-12-01T13:35:31.780Z,95182.38
2022-12-01T13:38:32.036Z,95169.47
2022-12-01T13:41:36.538Z,95171.66
2022-12-01T13:44:08.598Z,95171.72
2022-12-01T13:46:44.206Z,95175.59
2022-12-01T13:49:33.535Z,95173.84
2022-12-01T13:52:21.652Z,95168.59
2022-12-01T13:55:07.067Z,95177.91
2022-12-01T13:57:36.223Z,95179.88
2022-12-01T14:00:02.937Z,95171.03
2022-12-01T14:02:38.520Z,95177.56
2022-12-01T14:05:40.765Z,95176.94
2022-12-01T14:08:24.396Z,95171.72
2022-12-01T14:10:54.135Z,95175.22
2022-12-01T14:13:21.298Z,95177.47
2022-12-01T14:15:55.177Z,95172.81
2022-12-01T14:18:21.633Z,95175.44
2022-12-01T14:20:48.760Z,95174.59
2022-12-01T14:24:02.063Z,95170.19
2022-12-01T14:26:31.063Z,95175.19
2022-12-01T14:29:09.506Z,95180.72
2022-12-01T14:31:36.465Z,95178.72
2022-12-01T14:34:23.345Z,95183.22
2022-12-01T14:37:14.038Z,95175.06
2022-12-01T14:39:45.043Z,95179.81
2022-12-01T14:42:11.514Z,95177.03
2022-12-01T14:44:44.650Z,95177.72
2022-12-01T14:47:11.089Z,95182.31
2022-12-01T14:49:42.345Z,95172.56
2022-12-01T14:52:26.400Z,95176.69
2022-12-01T14:54:55.442Z,95176.03
2022-12-01T14:57:25.889Z,95171.66
2022-12-01T15:00:04.483Z,95168.91
2022-12-01T15:02:31.135Z,95181.03
2022-12-01T15:05:15.774Z,95171.66
2022-12-01T15:07:46.084Z,95177.50
2022-12-01T15:10:20.137Z,95177.44
2022-12-01T15:12:47.591Z,95178.72
2022-12-01T15:15:23.683Z,95179.34
2022-12-01T15:17:52.098Z,95186.75
2022-12-01T15:20:36.996Z,95185.06
2022-12-01T15:23:14.390Z,95187.28
2022-12-01T15:25:45.116Z,95185.72
2022-12-01T15:28:32.775Z,95180.13
2022-12-01T15:31:00.472Z,95186.16
2022-12-01T15:33:36.585Z,95181.66
2022-12-01T15:36:04.278Z,95188.72
2022-12-01T15:38:35.852Z,95184.63
2022-12-01T15:43:56.217Z,95182.28
2022-12-01T15:46:31.550Z,95179.22
2022-12-01T15:49:09.100Z,95180.44
2022-12-01T15:51:35.826Z,95186.06
2022-12-01T15:54:02.874Z,95191.13
2022-12-01T15:56:38.237Z,95180.25
2022-12-01T15:59:13.986Z,95182.13
2022-12-01T16:01:42.265Z,95186.84
2022-12-01T16:04:29.669Z,95190.75
2022-12-01T16:07:05.884Z,95184.31
2022-12-01T16:09:38.430Z,95193.22
2022-12-01T16:12:16.909Z,95190.16
2022-12-01T16:15:01.398Z,95194.81
2022-12-01T16:17:42.048Z,95185.06
2022-12-01T16:20:18.974Z,95191.09
2022-12-01T16:22:47.337Z,95189.81
2022-12-01T16:25:28.673Z,95182.22
2022-12-01T16:27:56.639Z,95187.53
2022-12-01T16:30:26.047Z,95185.72
2022-12-01T16:33:00.875Z,95182.16
2022-12-01T16:35:29.606Z,95187.59
2022-12-01T16:37:57.333Z,95192.84
2022-12-01T16:40:24.838Z,95180.66
2022-12-01T16:42:51.550Z,95186.44
2022-12-01T16:45:19.010Z,95197.66
2022-12-01T16:47:46.983Z,95194.66
2022-12-01T16:50:18.197Z,95191.34
2022-12-01T16:52:45.542Z,95194.84
2022-12-01T16:55:24.505Z,95193.59
2022-12-01T16:57:51.196Z,95195.22
2022-12-01T17:00:18.070Z,95192.53
2022-12-01T17:02:44.753Z,95190.72
2022-12-01T17:05:11.558Z,95186.44
2022-12-01T17:07:38.342Z,95193.50
2022-12-01T17:10:07.720Z,95195.94
2022-12-01T17:12:34.238Z,95198.00
2022-12-01T17:15:00.774Z,95195.22
2022-12-01T17:17:28.786Z,95198.38
2022-12-01T17:19:55.618Z,95194.13
2022-12-01T17:22:22.162Z,95178.06
2022-12-01T17:24:49.173Z,95186.91
2022-12-01T17:27:16.091Z,95183.28
2022-12-01T17:29:46.042Z,95177.63
2022-12-01T17:32:13.351Z,95189.72
2022-12-01T17:34:39.943Z,95182.31
2022-12-01T17:37:06.655Z,95192.88
2022-12-01T17:39:33.246Z,95191.69
2022-12-01T17:41:59.804Z,95186.38
2022-12-01T17:44:26.348Z,95182.66
2022-12-01T17:46:52.945Z,95193.13
2022-12-01T17:49:19.585Z,95179.03
2022-12-01T17:51:46.173Z,95185.00
2022-12-01T17:54:12.803Z,95175.72
2022-12-01T17:56:39.338Z,95184.38
2022-12-01T17:59:05.932Z,95195.22
2022-12-01T18:01:32.700Z,95188.91
2022-12-01T18:03:59.319Z,95198.22
2022-12-01T18:06:26.208Z,95203.19
2022-12-01T18:08:53.110Z,95190.34
2022-12-01T18:11:19.845Z,95196.50
2022-12-01T18:13:48.469Z,95187.00
2022-12-01T18:16:18.413Z,95200.44
2022-12-01T18:18:45.779Z,95190.78
2022-12-01T18:21:13.963Z,95187.28
2022-12-01T18:23:40.889Z,95200.47
2022-12-01T18:26:15.735Z,95185.38
2022-12-01T18:28:43.261Z,95189.78
2022-12-01T18:31:12.869Z,95193.75
2022-12-01T18:33:41.600Z,95193.34
2022-12-01T18:36:13.874Z,95196.94
2022-12-01T18:38:41.078Z,95194.22
2022-12-01T18:41:08.082Z,95193.25
2022-12-01T18:43:34.822Z,95193.50
2022-12-01T18:46:03.313Z,95196.75
2022-12-01T18:48:37.875Z,95192.78
2022-12-01T18:51:05.993Z,95191.59
2022-12-01T18:53:35.064Z,95179.69
2022-12-01T18:56:03.339Z,95180.31
2022-12-01T18:58:57.923Z,95191.34
2022-12-01T19:01:36.035Z,95190.41
2022-12-01T19:04:03.094Z,95177.16
2022-12-01T19:06:30.077Z,95172.13
2022-12-01T19:08:59.542Z,95181.13
2022-12-01T19:11:26.083Z,95179.50
2022-12-01T19:13:52.559Z,95178.97
2022-12-01T19:16:19.805Z,95174.53
2022-12-01T19:18:46.695Z,95183.47
2022-12-01T19:21:16.017Z,95187.00
2022-12-01T19:23:43.078Z,95171.38
2022-12-01T19:26:15.541Z,95175.88
2022-12-01T19:28:42.411Z,95179.31
2022-12-01T19:31:10.668Z,95175.28
2022-12-01T19:33:37.208Z,95167.06
2022-12-01T19:36:09.309Z,95174.91
2022-12-01T19:38:36.022Z,95177.44
2022-12-01T19:41:03.395Z,95186.91
2022-12-01T19:43:29.957Z,95185.56
2022-12-01T19:45:56.545Z,95171.66
2022-12-01T19:48:23.217Z,95183.94
2022-12-01T19:50:49.758Z,95175.16
2022-12-01T19:53:16.293Z,95194.06
2022-12-01T19:55:43.056Z,95195.69
2022-12-01T19:58:09.569Z,95201.44
2022-12-01T20:00:36.251Z,95199.19
2022-12-01T20:03:02.804Z,95191.97
2022-12-01T20:05:29.378Z,95194.41
2022-12-01T20:07:56.006Z,95201.47
2022-12-01T20:10:22.560Z,95209.66
2022-12-01T20:12:50.014Z,95209.56
2022-12-01T20:15:16.982Z,95214.63
2022-12-01T20:17:43.690Z,95204.88
2022-12-01T20:20:11.627Z,95197.91
2022-12-01T20:22:38.365Z,95207.66
2022-12-01T20:25:05.728Z,95206.97
2022-12-01T20:27:32.589Z,95205.25
2022-12-01T20:29:59.237Z,95205.34
2022-12-01T20:32:25.864Z,95212.00
2022-12-01T20:34:55.206Z,95203.69
2022-12-01T20:37:25.472Z,95207.13
2022-12-01T20:39:52.160Z,95204.34
2022-12-01T20:42:18.645Z,95217.59
2022-12-01T20:44:45.146Z,95206.13
2022-12-01T20:47:14.214Z,95204.63
2022-12-01T20:49:40.805Z,95201.09
2022-12-01T20:52:07.407Z,95206.22
2022-12-01T20:54:33.995Z,95201.81
2022-12-01T20:57:00.541Z,95211.13
2022-12-01T20:59:27.979Z,95211.03
2022-12-01T21:01:54.815Z,95203.69
2022-12-01T21:04:21.376Z,95205.78
2022-12-01T21:06:47.940Z,95208.13
2022-12-01T21:09:14.445Z,95207.59
2022-12-01T21:11:49.670Z,95203.25
2022-12-01T21:14:20.065Z,95203.09
2022-12-01T21:16:47.654Z,95202.09
2022-12-01T21:19:18.201Z,95213.09
2022-12-01T21:21:44.693Z,95204.34
2022-12-01T21:24:14.451Z,95208.03
2022-12-01T21:26:42.909Z,95200.00
2022-12-01T21:29:23.682Z,95204.31
2022-12-01T21:31:53.340Z,95198.91
2022-12-01T21:34:27.936Z,95198.38
2022-12-01T21:36:56.465Z,95193.78
2022-12-01T21:39:25.004Z,95196.13
2022-12-01T21:41:55.425Z,95189.00
2022-12-01T21:44:23.162Z,95195.75
2022-12-01T21:46:56.525Z,95189.88
2022-12-01T21:49:32.645Z,95204.72
2022-12-01T21:51:59.183Z,95193.84
2022-12-01T21:54:25.695Z,95201.09
2022-12-01T21:56:55.106Z,95188.25
2022-12-01T21:59:22.989Z,95200.38
2022-12-01T22:01:53.924Z,95201.25
2022-12-01T22:04:30.645Z,95208.13
2022-12-01T22:06:57.925Z,95204.97
2022-12-01T22:09:31.254Z,95199.63
2022-12-01T22:12:01.951Z,95205.44
2022-12-01T22:14:37.831Z,95198.91
2022-12-01T22:17:07.332Z,95201.91
2022-12-01T22:19:37.101Z,95204.06
2022-12-01T22:22:23.379Z,95204.88
2022-12-01T22:24:52.675Z,95205.78
2022-12-01T22:27:28.947Z,95196.13
2022-12-01T22:30:05.826Z,95197.84
2022-12-01T22:32:35.247Z,95194.69
2022-12-01T22:35:17.745Z,95199.09
2022-12-01T22:37:46.421Z,95200.38
2022-12-01T22:41:01.877Z,95203.34
2022-12-01T22:43:48.493Z,95200.00
2022-12-01T22:46:27.242Z,95198.03
2022-12-01T22:48:56.660Z,95197.56
2022-12-01T22:51:30.795Z,95200.53
2022-12-01T22:54:00.587Z,95192.25
2022-12-01T22:56:39.853Z,95194.56
2022-12-01T22:59:16.672Z,95194.66
2022-12-01T23:01:59.841Z,95193.03
2022-12-01T23:04:51.278Z,95193.16
2022-12-01T23:07:35.248Z,95191.78
2022-12-01T23:10:16.722Z,95200.25
2022-12-01T23:12:45.117Z,95191.34
2022-12-01T23:15:33.738Z,95193.38
2022-12-01T23:18:29.447Z,95197.47
2022-12-01T23:21:05.138Z,95186.00
2022-12-01T23:23:36.936Z,95178.66
2022-12-01T23:26:08.569Z,95180.13
2022-12-01T23:28:35.958Z,95185.19
2022-12-01T23:31:02.732Z,95173.81
2022-12-01T23:33:31.790Z,95181.47
2022-12-01T23:36:09.001Z,95176.56
2022-12-01T23:38:42.525Z,95180.38
2022-12-01T23:41:25.868Z,95166.84
2022-12-01T23:43:54.231Z,95176.97
2022-12-01T23:46:23.563Z,95171.53
2022-12-01T23:48:59.339Z,95171.88
2022-12-01T23:51:40.322Z,95164.22
2022-12-01T23:54:17.651Z,95157.72
2022-12-01T23:56:54.735Z,95145.94
2022-12-01T23:59:32.222Z,95157.50
